Time;durP1;ratioP1;P1;durP2;ratioP2;P2;SDS_P1;SDS_P2;PMS_P1;PMS_P2;Temp;Humidity;BMP_temperature;BMP_pressure;BME280_temperature;BME280_humidity;BME280_pressure;Samples;Min_cycle;Max_cycle;Signal;HPM_P1;HPM_P2
2023/10/08 00:03:08;;;;;;;11.88;3.75;;;;;;;13.19;42.82;94369.50;5026652;28;20024;-78
2023/10/08 00:05:37;;;;;;;9.32;3.25;;;;;;;13.16;42.65;94368.22;5027333;28;20021;-78
2023/10/08 00:08:04;;;;;;;9.20;3.72;;;;;;;13.17;43.29;94358.31;5025755;28;20013;-78
2023/10/08 00:10:35;;;;;;;9.13;3.40;;;;;;;13.12;44.26;94361.94;5025732;28;20044;-79
2023/10/08 00:13:00;;;;;;;9.65;3.40;;;;;;;13.11;44.50;94359.56;5025729;28;20013;-80
2023/10/08 00:15:26;;;;;;;8.77;3.70;;;;;;;13.07;44.80;94353.25;5026740;28;20025;-80
2023/10/08 00:17:54;;;;;;;8.13;3.35;;;;;;;13.05;44.36;94351.72;5025526;28;20021;-83
2023/10/08 00:20:25;;;;;;;10.88;3.25;;;;;;;13.02;44.69;94354.22;5025641;28;20032;-82
2023/10/08 00:22:54;;;;;;;9.40;3.72;;;;;;;12.98;44.19;94362.09;5026765;28;20030;-82
2023/10/08 00:25:20;;;;;;;8.68;3.50;;;;;;;12.94;45.13;94353.13;5026737;28;20289;-83
2023/10/08 00:28:28;;;;;;;7.70;3.38;;;;;;;12.90;44.48;94341.47;5026177;28;20101;-80
2023/10/08 00:30:55;;;;;;;7.13;3.17;;;;;;;12.82;44.78;94342.25;5006152;28;20038;-80
2023/10/08 00:33:20;;;;;;;9.70;3.67;;;;;;;12.75;44.95;94336.59;5025255;28;20025;-80
2023/10/08 00:35:47;;;;;;;9.48;3.67;;;;;;;12.76;46.09;94338.97;5025666;28;20033;-80
2023/10/08 00:38:20;;;;;;;8.15;3.42;;;;;;;12.73;46.79;94334.25;5025817;28;20113;-80
2023/10/08 00:40:46;;;;;;;11.60;3.75;;;;;;;12.68;47.46;94342.44;5026482;28;20026;-80
2023/10/08 00:43:35;;;;;;;9.57;3.45;;;;;;;12.59;47.27;94336.28;5026302;28;20232;-81
2023/10/08 00:46:24;;;;;;;9.07;3.70;;;;;;;12.53;47.20;94341.00;5026281;28;20041;-80
2023/10/08 00:48:54;;;;;;;12.05;3.60;;;;;;;12.52;46.95;94349.34;5025136;28;20025;-79
2023/10/08 00:53:52;;;;;;;7.38;3.50;;;;;;;12.45;47.28;94334.53;5026284;28;20026;-80
2023/10/08 00:56:19;;;;;;;8.07;4.07;;;;;;;12.43;47.07;94331.38;5026527;28;20049;-80
2023/10/08 00:58:52;;;;;;;19.40;3.78;;;;;;;12.41;47.19;94325.56;5024941;28;20057;-80
2023/10/08 01:01:20;;;;;;;11.43;3.63;;;;;;;12.40;48.26;94320.53;5026089;28;20048;-80
2023/10/08 01:03:47;;;;;;;9.80;3.17;;;;;;;12.37;48.25;94331.84;5026197;28;20018;-81
2023/10/08 01:06:14;;;;;;;10.05;3.80;;;;;;;12.38;48.54;94326.19;5025996;28;20248;-80
2023/10/08 01:08:46;;;;;;;14.55;3.80;;;;;;;12.32;49.10;94324.00;5026157;28;20018;-80
2023/10/08 01:11:30;;;;;;;6.57;3.40;;;;;;;12.24;48.70;94328.22;5025789;28;20031;-82
2023/10/08 01:13:58;;;;;;;13.65;3.65;;;;;;;12.19;49.46;94323.81;5024422;28;20037;-81
2023/10/08 01:16:26;;;;;;;8.65;3.60;;;;;;;12.13;49.39;94321.56;5025580;28;20093;-81
2023/10/08 01:18:54;;;;;;;16.85;3.17;;;;;;;12.12;49.80;94326.13;5025502;28;20036;-81
2023/10/08 01:21:41;;;;;;;7.82;3.15;;;;;;;12.08;49.46;94322.53;5025610;28;20021;-79
2023/10/08 01:24:07;;;;;;;10.15;3.65;;;;;;;12.07;49.04;94323.63;5025528;28;20104;-80
2023/10/08 01:26:38;;;;;;;9.80;3.85;;;;;;;12.07;49.46;94326.31;5025720;28;20081;-80
2023/10/08 01:29:06;;;;;;;10.35;3.35;;;;;;;12.04;49.96;94321.56;5025628;28;20030;-81
2023/10/08 01:31:32;;;;;;;10.48;4.10;;;;;;;12.04;50.49;94321.56;5024210;28;20030;-80
2023/10/08 01:33:57;;;;;;;12.45;3.63;;;;;;;12.02;50.01;94321.09;5025598;28;20042;-81
2023/10/08 01:36:26;;;;;;;9.25;3.83;;;;;;;12.00;50.05;94320.59;5025314;28;20068;-80
2023/10/08 01:38:54;;;;;;;14.98;4.32;;;;;;;11.99;50.56;94332.41;5023920;28;20056;-79
2023/10/08 01:41:19;;;;;;;8.10;3.38;;;;;;;11.94;50.25;94332.53;5025298;28;20034;-79
2023/10/08 01:43:46;;;;;;;15.25;3.72;;;;;;;11.89;50.80;94322.78;5025356;28;20335;-80
2023/10/08 01:46:12;;;;;;;8.07;3.35;;;;;;;11.85;50.54;94330.59;5025079;28;20026;-80
2023/10/08 01:48:39;;;;;;;10.18;4.25;;;;;;;11.81;50.88;94329.63;5025178;28;20026;-80
2023/10/08 01:51:24;;;;;;;13.60;3.50;;;;;;;11.80;51.16;94325.38;5024134;28;20053;-80
2023/10/08 01:53:54;;;;;;;14.43;3.67;;;;;;;11.74;51.88;94325.84;5025277;28;20029;-80
2023/10/08 01:56:19;;;;;;;12.52;4.15;;;;;;;11.65;51.72;94329.25;5025094;28;20088;-79
2023/10/08 01:58:46;;;;;;;14.07;3.90;;;;;;;11.61;51.79;94317.63;5024829;28;20030;-79
2023/10/08 02:01:13;;;;;;;10.63;3.72;;;;;;;11.58;51.59;94325.44;5024811;28;20277;-79
2023/10/08 02:03:38;;;;;;;11.90;3.50;;;;;;;11.48;51.57;94334.53;5023615;28;20065;-80
2023/10/08 02:06:06;;;;;;;10.02;3.60;;;;;;;11.44;51.79;94328.22;5024828;28;20197;-80
2023/10/08 02:08:31;;;;;;;8.85;3.75;;;;;;;11.40;52.45;94336.06;5039958;28;20017;-80
2023/10/08 02:10:57;;;;;;;9.15;3.97;;;;;;;11.36;53.46;94329.75;5039897;28;20032;-79
2023/10/08 02:13:22;;;;;;;13.20;5.28;;;;;;;11.34;54.04;94331.16;5024833;28;20033;-79
2023/10/08 02:15:54;;;;;;;9.60;3.55;;;;;;;11.27;54.56;94323.56;5024548;28;20162;-80
2023/10/08 02:18:23;;;;;;;11.10;3.43;;;;;;;11.25;54.31;94331.09;5024500;28;20029;-81
2023/10/08 02:20:48;;;;;;;11.63;5.03;;;;;;;11.22;54.58;94323.72;5024605;28;20055;-81
2023/10/08 02:23:14;;;;;;;19.20;3.63;;;;;;;11.17;54.38;94323.81;5023752;28;20324;-81
2023/10/08 02:25:40;;;;;;;15.30;4.13;;;;;;;11.18;53.73;94320.06;5022745;28;20376;-81
2023/10/08 02:28:08;;;;;;;7.97;3.92;;;;;;;11.18;53.30;94314.75;5024450;28;20022;-79
2023/10/08 02:30:36;;;;;;;7.80;3.67;;;;;;;11.15;52.86;94310.00;5024146;28;20025;-80
2023/10/08 02:33:02;;;;;;;9.93;4.57;;;;;;;11.18;52.69;94309.41;5024653;28;20205;-80
2023/10/08 02:35:27;;;;;;;7.57;3.97;;;;;;;11.21;52.72;94311.44;5024192;28;20026;-81
2023/10/08 02:37:54;;;;;;;13.65;4.13;;;;;;;11.24;53.40;94302.84;5023934;28;20057;-81
2023/10/08 02:40:26;;;;;;;11.00;4.30;;;;;;;11.18;53.46;94304.84;5023123;28;20033;-80
2023/10/08 02:43:00;;;;;;;9.95;4.55;;;;;;;11.15;53.74;94302.78;5024409;28;20030;-79
2023/10/08 02:45:29;;;;;;;11.45;4.05;;;;;;;11.12;53.78;94308.75;5024000;28;20028;-80
2023/10/08 02:47:55;;;;;;;11.50;4.97;;;;;;;11.08;54.20;94312.31;5024262;28;20041;-79
2023/10/08 02:50:22;;;;;;;11.60;5.25;;;;;;;11.09;54.36;94308.56;5022749;28;20021;-79
2023/10/08 02:52:49;;;;;;;10.60;4.60;;;;;;;11.06;54.64;94319.84;5023941;28;20024;-79
2023/10/08 02:55:34;;;;;;;11.48;4.35;;;;;;;10.98;54.80;94313.34;5023914;28;20258;-79
2023/10/08 02:58:02;;;;;;;10.85;4.47;;;;;;;10.93;55.34;94311.63;5039115;28;20050;-79
2023/10/08 03:00:34;;;;;;;10.07;4.05;;;;;;;10.88;55.07;94301.06;5023816;28;20048;-79
2023/10/08 03:03:02;;;;;;;14.27;4.35;;;;;;;10.84;55.39;94324.09;5023757;28;20029;-79
2023/10/08 03:05:35;;;;;;;10.30;4.25;;;;;;;10.83;55.65;94319.84;5022728;28;20211;-79
2023/10/08 03:08:22;;;;;;;12.75;3.88;;;;;;;10.80;55.16;94320.44;5023661;28;20068;-79
2023/10/08 03:11:02;;;;;;;13.32;4.65;;;;;;;10.75;55.03;94331.25;5023607;28;20025;-79
2023/10/08 03:13:28;;;;;;;12.75;3.33;;;;;;;10.74;55.07;94321.66;5023633;28;20022;-81
2023/10/08 03:18:35;;;;;;;9.52;3.90;;;;;;;10.70;54.31;94318.00;5023500;28;20279;-81
2023/10/08 03:21:05;;;;;;;9.10;3.70;;;;;;;10.67;54.35;94316.75;5023470;28;20027;-81
2023/10/08 03:23:34;;;;;;;14.35;4.35;;;;;;;10.60;54.99;94317.19;5023547;28;20021;-81
2023/10/08 03:26:10;;;;;;;9.75;3.47;;;;;;;10.60;54.28;94306.50;5023328;28;20021;-82
2023/10/08 03:28:37;;;;;;;9.43;3.58;;;;;;;10.61;54.53;94300.06;5023372;28;20032;-81
2023/10/08 03:31:13;;;;;;;9.98;3.80;;;;;;;10.59;54.39;94304.13;5023357;28;20030;-79
2023/10/08 03:33:39;;;;;;;10.32;3.92;;;;;;;10.58;54.68;94295.38;5023376;28;20076;-79
2023/10/08 03:36:20;;;;;;;9.52;3.50;;;;;;;10.61;55.13;94301.97;5023290;28;20045;-79
2023/10/08 03:38:52;;;;;;;11.30;3.70;;;;;;;10.59;55.26;94294.25;5023127;28;20045;-78
2023/10/08 03:41:27;;;;;;;9.83;3.53;;;;;;;10.59;55.73;94293.47;5023101;28;20029;-79
2023/10/08 03:43:55;;;;;;;10.50;4.07;;;;;;;10.60;55.39;94295.03;5023219;28;20029;-79
2023/10/08 03:46:23;;;;;;;11.55;3.88;;;;;;;10.56;55.48;94294.88;5023179;28;20021;-79
2023/10/08 03:48:51;;;;;;;7.55;3.35;;;;;;;10.55;55.46;94293.28;5022985;28;20025;-79
2023/10/08 03:51:21;;;;;;;9.05;4.50;;;;;;;10.53;56.46;94295.47;5023166;28;20026;-79
2023/10/08 03:56:31;;;;;;;11.80;3.55;;;;;;;10.50;56.50;94284.63;5022953;28;20032;-79
2023/10/08 03:59:01;;;;;;;12.13;3.78;;;;;;;10.47;56.31;94271.91;5022931;28;20041;-78
2023/10/08 04:01:31;;;;;;;9.98;3.95;;;;;;;10.50;55.29;94273.97;5022833;28;20021;-79
2023/10/08 04:06:29;;;;;;;13.45;3.92;;;;;;;10.56;55.50;94278.06;5023181;28;20325;-79
2023/10/08 04:09:01;;;;;;;12.85;5.20;;;;;;;10.56;55.97;94278.88;5023080;28;20021;-79
2023/10/08 04:11:35;;;;;;;;;;;;;;;10.56;56.28;94278.88;5023341;28;20029;-79
2023/10/08 04:14:04;;;;;;;9.35;3.63;;;;;;;10.47;56.95;94280.69;5022977;28;19905;-79
2023/10/08 04:16:37;;;;;;;13.15;4.90;;;;;;;10.44;57.00;94266.09;5023080;28;20029;-79
2023/10/08 04:19:07;;;;;;;16.33;4.40;;;;;;;10.40;57.47;94270.44;5021737;28;20209;-79
2023/10/08 04:21:33;;;;;;;15.15;4.57;;;;;;;10.41;56.26;94276.56;5022928;28;20201;-79
2023/10/08 04:24:08;;;;;;;10.55;3.50;;;;;;;10.41;55.97;94271.22;5023077;28;20380;-82
2023/10/08 04:26:34;;;;;;;13.15;4.07;;;;;;;10.40;56.72;94275.78;5022906;28;20132;-81
2023/10/08 04:29:06;;;;;;;8.25;3.75;;;;;;;10.39;56.00;94284.06;5022974;28;20311;-82
2023/10/08 04:31:46;;;;;;;;;;;;;;;10.38;55.74;94277.16;5038971;28;20283;-82
2023/10/08 04:34:22;;;;;;;11.27;3.30;;;;;;;10.34;56.01;94284.16;5023178;28;19905;-81
2023/10/08 04:36:54;;;;;;;13.57;4.45;;;;;;;10.34;55.94;94276.97;5021613;28;20040;-82
2023/10/08 04:39:26;;;;;;;9.45;3.80;;;;;;;10.35;56.98;94277.75;5022478;28;20084;-79
2023/10/08 04:41:58;;;;;;;10.65;3.38;;;;;;;10.34;56.75;94290.31;5022730;28;20022;-80
2023/10/08 04:44:25;;;;;;;9.23;4.00;;;;;;;10.35;56.60;94275.09;5022808;28;20045;-80
2023/10/08 04:46:52;;;;;;;13.15;4.22;;;;;;;10.41;57.27;94281.88;5022517;28;20231;-80
2023/10/08 04:49:30;;;;;;;14.38;4.68;;;;;;;10.43;56.95;94287.69;5025986;28;20125;-80
2023/10/08 04:51:59;;;;;;;11.05;3.70;;;;;;;10.47;56.76;94288.69;5026251;28;20021;-79
2023/10/08 04:54:31;;;;;;;10.45;4.30;;;;;;;10.51;56.55;94296.88;5026288;28;20021;-80
2023/10/08 04:57:01;;;;;;;11.23;3.90;;;;;;;10.55;56.72;94298.63;5026298;28;20028;-80
2023/10/08 04:59:33;;;;;;;14.32;3.90;;;;;;;10.58;57.61;94292.69;5024833;28;20033;-80
2023/10/08 05:05:21;;;;;;;9.23;3.38;;;;;;;10.64;56.88;94296.81;5026082;28;20026;-79
2023/10/08 05:08:00;;;;;;;12.27;4.10;;;;;;;10.70;56.84;94284.13;5022933;28;20096;-80
2023/10/08 05:13:15;;;;;;;8.95;3.75;;;;;;;10.78;56.43;94290.63;5025817;28;20072;-79
2023/10/08 05:18:51;;;;;;;9.35;3.83;;;;;;;10.94;56.60;94288.38;5025478;28;20145;-80
2023/10/08 05:21:28;;;;;;;15.35;4.32;;;;;;;10.98;56.57;94287.47;5025927;28;20022;-79
2023/10/08 05:24:08;;;;;;;8.20;3.67;;;;;;;11.04;56.09;94291.59;5025757;28;20021;-80
2023/10/08 05:26:41;;;;;;;9.73;3.20;;;;;;;11.14;55.88;94298.56;5024614;28;20304;-80
2023/10/08 05:32:29;;;;;;;7.50;3.50;;;;;;;11.28;57.01;94303.81;5025585;28;20024;-80
2023/10/08 05:34:50;;;;;;;10.93;3.95;;;;;;;11.36;56.97;94303.06;5025548;28;20021;-80
2023/10/08 05:37:32;;;;;;;22.13;4.70;;;;;;;11.44;56.02;94299.66;5025227;28;20017;-80
2023/10/08 05:40:11;;;;;;;17.25;4.40;;;;;;;11.49;54.81;94304.06;5025541;28;20037;-80
2023/10/08 05:42:45;;;;;;;11.48;3.70;;;;;;;11.58;53.69;94312.09;5025587;28;20136;-80
2023/10/08 05:50:39;;;;;;;19.05;4.30;;;;;;;11.81;53.13;94304.81;5025197;28;20017;-80
2023/10/08 05:55:47;;;;;;;14.95;4.80;;;;;;;11.97;52.58;94307.88;5025233;28;20033;-81
2023/10/08 06:01:01;;;;;;;9.90;4.43;;;;;;;12.14;51.37;94317.81;5024317;28;20056;-80
2023/10/08 06:04:00;;;;;;;10.07;4.00;;;;;;;12.24;51.35;94329.00;5023726;28;20029;-81
2023/10/08 06:11:44;;;;;;;13.10;4.60;;;;;;;12.43;50.32;94323.34;5024823;28;20522;-81
2023/10/08 06:14:13;;;;;;;15.45;4.93;;;;;;;12.50;50.97;94312.22;5023489;28;20037;-82
2023/10/08 06:16:46;;;;;;;11.95;4.40;;;;;;;12.54;51.16;94307.03;5024474;28;20084;-82
2023/10/08 06:19:13;;;;;;;11.38;4.38;;;;;;;12.67;50.89;94307.97;5024723;28;20025;-82
2023/10/08 06:21:40;;;;;;;15.25;4.95;;;;;;;12.76;50.97;94298.06;5023505;28;20028;-80
2023/10/08 06:24:09;;;;;;;11.65;4.32;;;;;;;12.86;50.57;94305.75;5023435;28;20050;-82
2023/10/08 06:26:42;;;;;;;16.30;4.20;;;;;;;12.88;50.56;94295.53;5024137;28;20071;-82
2023/10/08 06:32:07;;;;;;;13.88;3.80;;;;;;;13.18;51.55;94301.78;5010704;28;20036;-79
2023/10/08 06:34:32;;;;;;;15.00;4.45;;;;;;;13.24;50.48;94300.50;5022631;28;20029;-81
2023/10/08 06:36:59;;;;;;;15.60;5.00;;;;;;;13.37;50.65;94312.19;5023976;28;20025;-79
2023/10/08 06:39:32;;;;;;;21.63;6.90;;;;;;;13.50;49.78;94328.38;5023501;28;20041;-78
2023/10/08 06:41:59;;;;;;;14.40;5.75;;;;;;;13.53;49.35;94317.78;5023465;28;20505;-79
2023/10/08 06:44:25;;;;;;;14.55;4.78;;;;;;;13.58;49.29;94308.81;5023394;28;20022;-79
2023/10/08 06:46:54;;;;;;;10.15;5.07;;;;;;;13.68;49.25;94313.81;5023506;28;20018;-79
2023/10/08 06:49:23;;;;;;;16.15;5.40;;;;;;;13.79;48.98;94306.19;5023382;28;20311;-78
2023/10/08 06:51:50;;;;;;;19.33;5.28;;;;;;;13.90;48.90;94306.59;5023526;28;20085;-75
2023/10/08 06:54:17;;;;;;;17.92;5.53;;;;;;;14.04;48.66;94304.47;5023556;28;20097;-78
2023/10/08 06:57:01;;;;;;;17.10;6.05;;;;;;;14.15;48.42;94297.66;5023546;28;20048;-78
2023/10/08 06:59:31;;;;;;;10.35;4.30;;;;;;;14.29;48.96;94291.25;5022341;28;20041;-74
2023/10/08 07:01:58;;;;;;;14.57;4.53;;;;;;;14.44;47.61;94296.06;5023525;28;20136;-74
2023/10/08 07:04:24;;;;;;;21.88;5.68;;;;;;;14.58;47.75;94293.94;5023390;28;20022;-74
2023/10/08 07:06:50;;;;;;;16.05;4.53;;;;;;;14.77;45.00;94298.81;5023246;28;20088;-75
2023/10/08 07:09:22;;;;;;;19.70;5.30;;;;;;;14.93;45.75;94290.19;5023703;28;20021;-74
2023/10/08 07:11:54;;;;;;;16.85;5.43;;;;;;;15.07;46.15;94296.03;5023136;28;20022;-74
2023/10/08 07:14:20;;;;;;;;;;;;;;;15.23;44.93;94298.91;5023692;28;20025;-74
2023/10/08 07:16:47;;;;;;;14.13;4.93;;;;;;;15.28;44.87;94297.91;5023257;28;19910;-74
2023/10/08 07:19:17;;;;;;;12.23;5.15;;;;;;;15.48;43.48;94290.91;5022993;28;20093;-74
2023/10/08 07:21:44;;;;;;;14.23;5.35;;;;;;;15.70;43.32;94287.78;5021915;28;20096;-74
2023/10/08 07:24:21;;;;;;;11.32;5.05;;;;;;;15.89;42.64;94281.09;5023194;28;20017;-74
2023/10/08 07:26:47;;;;;;;18.88;5.30;;;;;;;16.03;42.51;94282.31;5023048;28;20065;-74
2023/10/08 07:29:17;;;;;;;16.83;5.10;;;;;;;16.17;41.59;94281.22;5023081;28;20268;-75
2023/10/08 07:31:49;;;;;;;14.65;4.50;;;;;;;16.36;41.07;94277.94;5022979;28;20032;-73
2023/10/08 07:36:50;;;;;;;6.75;2.75;;;;;;;17.01;34.32;94270.56;5022879;28;20021;-73
2023/10/08 07:39:26;;;;;;;5.90;2.50;;;;;;;17.38;31.99;94261.53;5022822;28;20087;-74
2023/10/08 07:41:53;;;;;;;5.88;2.30;;;;;;;17.80;31.17;94272.59;5022905;28;20037;-74
2023/10/08 07:44:23;;;;;;;6.07;2.38;;;;;;;18.07;30.19;94247.81;5022632;28;20024;-74
2023/10/08 07:46:55;;;;;;;7.85;2.45;;;;;;;18.29;30.69;94254.47;5038108;28;20371;-75
2023/10/08 07:49:23;;;;;;;7.32;2.67;;;;;;;18.51;30.37;94261.91;5022579;28;20028;-75
2023/10/08 07:51:51;;;;;;;5.72;2.92;;;;;;;18.68;29.14;94252.59;5022580;28;20033;-75
2023/10/08 07:54:29;;;;;;;9.80;2.35;;;;;;;18.85;29.27;94254.13;5022640;28;20263;-75
2023/10/08 07:57:08;;;;;;;11.43;2.92;;;;;;;18.98;29.09;94246.66;5021311;28;20029;-75
2023/10/08 07:59:38;;;;;;;8.13;2.65;;;;;;;19.07;29.27;94249.94;5022691;28;20021;-80
2023/10/08 08:02:09;;;;;;;6.25;2.42;;;;;;;19.17;28.41;94232.34;5021496;28;20018;-76
2023/10/08 08:04:36;;;;;;;6.80;2.75;;;;;;;19.30;28.68;94247.25;5022541;28;20022;-77
2023/10/08 08:07:04;;;;;;;8.50;2.85;;;;;;;19.46;29.16;94244.47;5022499;28;20247;-76
2023/10/08 08:09:30;;;;;;;6.60;2.45;;;;;;;19.57;28.14;94247.34;5022501;28;20109;-76
2023/10/08 08:11:57;;;;;;;10.88;3.03;;;;;;;19.58;28.02;94230.75;5021403;28;20296;-76
2023/10/08 08:14:24;;;;;;;7.20;3.22;;;;;;;19.68;28.05;94229.34;5021827;28;20051;-77
2023/10/08 08:16:50;;;;;;;7.40;3.28;;;;;;;19.74;27.95;94233.38;5021451;28;20025;-76
2023/10/08 08:19:17;;;;;;;14.50;3.40;;;;;;;19.84;28.57;94232.75;5020726;28;20093;-76
2023/10/08 08:21:45;;;;;;;9.00;3.00;;;;;;;19.83;28.30;94233.88;5021879;28;20022;-76
2023/10/08 08:24:13;;;;;;;5.57;2.80;;;;;;;19.94;28.25;94233.28;5026088;28;20323;-77
2023/10/08 08:27:01;;;;;;;7.63;3.10;;;;;;;19.96;28.20;94220.16;5025516;28;20029;-77
2023/10/08 08:29:29;;;;;;;17.10;3.63;;;;;;;20.12;29.05;94218.06;5024095;28;20064;-76
2023/10/08 08:31:56;;;;;;;18.05;3.60;;;;;;;20.25;28.46;94218.63;5024558;28;20048;-76
2023/10/08 08:34:23;;;;;;;15.05;3.33;;;;;;;20.33;27.74;94219.53;5025135;28;20068;-77
2023/10/08 08:36:49;;;;;;;7.72;3.10;;;;;;;20.35;28.18;94212.63;5040568;28;20048;-77
2023/10/08 08:39:28;;;;;;;10.93;3.40;;;;;;;20.40;27.44;94230.47;5023892;28;20328;-77
2023/10/08 08:42:00;;;;;;;7.18;2.67;;;;;;;20.27;27.36;94221.75;5025567;28;20026;-76
2023/10/08 08:44:31;;;;;;;10.10;3.25;;;;;;;20.29;27.68;94205.94;5026130;28;20025;-76
2023/10/08 08:47:04;;;;;;;8.45;2.92;;;;;;;20.32;28.19;94221.47;5025937;28;20105;-76
2023/10/08 08:49:37;;;;;;;7.95;3.40;;;;;;;20.35;28.08;94206.41;5026193;28;20216;-76
2023/10/08 08:52:05;;;;;;;7.25;2.92;;;;;;;20.34;27.92;94197.50;5024844;28;20312;-76
2023/10/08 08:54:31;;;;;;;7.82;3.10;;;;;;;20.41;27.47;94204.94;5041387;28;20224;-76
2023/10/08 08:57:02;;;;;;;11.32;3.03;;;;;;;20.47;28.28;94198.06;5025777;28;20022;-76
2023/10/08 08:59:30;;;;;;;7.72;3.13;;;;;;;20.46;27.91;94199.22;5025544;28;20042;-77
2023/10/08 09:01:58;;;;;;;11.07;4.18;;;;;;;20.47;27.91;94203.47;5025691;28;20029;-77
2023/10/08 09:04:30;;;;;;;8.25;3.25;;;;;;;20.53;28.34;94215.53;5025913;28;20177;-76
2023/10/08 09:06:58;;;;;;;9.05;2.88;;;;;;;20.59;27.76;94205.97;5025707;28;20025;-77
2023/10/08 09:09:31;;;;;;;11.85;3.63;;;;;;;20.62;28.34;94197.13;5025543;28;20052;-76
2023/10/08 09:11:57;;;;;;;8.40;3.35;;;;;;;20.70;27.54;94194.47;5025691;28;20123;-76
2023/10/08 09:14:29;;;;;;;10.98;3.50;;;;;;;20.87;28.15;94199.34;5025483;28;20018;-76
2023/10/08 09:16:55;;;;;;;;;;;;;;;21.00;28.04;94219.63;5026020;28;20041;-76
2023/10/08 09:19:24;;;;;;;15.93;3.70;;;;;;;20.93;27.47;94192.44;5025358;28;19917;-76
2023/10/08 09:22:07;;;;;;;6.93;3.15;;;;;;;20.92;27.40;94215.25;5025279;28;20017;-76
2023/10/08 09:24:38;;;;;;;8.07;3.05;;;;;;;20.75;27.89;94191.47;5025334;28;20108;-76
2023/10/08 09:27:05;;;;;;;13.35;3.33;;;;;;;20.81;28.20;94211.66;5025450;28;20080;-76
2023/10/08 09:29:31;;;;;;;16.88;3.65;;;;;;;20.90;28.12;94192.41;5025210;28;20014;-76
2023/10/08 09:31:58;;;;;;;6.70;3.20;;;;;;;20.87;27.18;94196.63;5025017;28;20022;-75
2023/10/08 09:34:29;;;;;;;17.35;3.55;;;;;;;20.83;28.08;94182.25;5024970;28;20022;-75
2023/10/08 09:37:02;;;;;;;7.38;2.85;;;;;;;20.87;27.85;94183.09;5025071;28;20101;-75
2023/10/08 09:39:33;;;;;;;10.15;3.22;;;;;;;21.00;28.43;94186.31;5024959;28;20294;-76
2023/10/08 09:42:02;;;;;;;9.63;3.53;;;;;;;21.13;27.82;94176.00;5024873;28;20034;-76
2023/10/08 09:44:28;;;;;;;9.25;3.55;;;;;;;21.27;28.03;94178.84;5024614;28;20072;-76
2023/10/08 09:47:05;;;;;;;8.02;3.10;;;;;;;21.41;27.48;94175.47;5024838;28;20049;-76
2023/10/08 09:49:32;;;;;;;7.93;3.28;;;;;;;21.48;27.46;94162.00;5024891;28;20049;-84
2023/10/08 09:52:02;;;;;;;9.35;2.97;;;;;;;21.53;27.86;94152.75;5025070;28;20547;-79
2023/10/08 09:54:37;;;;;;;8.15;3.03;;;;;;;21.56;26.85;94168.28;5025024;28;20097;-79
2023/10/08 09:57:03;;;;;;;18.63;3.50;;;;;;;21.64;26.96;94162.53;5024922;28;20093;-78
2023/10/08 09:59:29;;;;;;;10.60;3.58;;;;;;;21.79;26.30;94163.41;5024653;28;20152;-78
2023/10/08 10:01:59;;;;;;;12.73;3.35;;;;;;;21.84;26.33;94160.34;5023700;28;20313;-79
2023/10/08 10:04:28;;;;;;;11.82;3.80;;;;;;;21.94;26.30;94150.72;5024716;28;20029;-78
2023/10/08 10:06:57;;;;;;;10.57;3.58;;;;;;;22.01;26.33;94145.34;5024636;28;20026;-78
2023/10/08 10:09:24;;;;;;;14.15;4.28;;;;;;;22.17;25.98;94146.97;5023709;28;20102;-78
2023/10/08 10:11:51;;;;;;;12.60;3.08;;;;;;;22.21;26.70;94151.25;5023724;28;20116;-78
2023/10/08 10:14:20;;;;;;;6.05;2.78;;;;;;;22.33;26.28;94150.19;5024409;28;20026;-79
2023/10/08 10:17:09;;;;;;;9.65;2.90;;;;;;;22.24;25.84;94164.09;5024702;28;20022;-80
2023/10/08 10:19:36;;;;;;;12.75;3.28;;;;;;;22.04;26.25;94160.06;5024605;28;20022;-78
2023/10/08 10:22:05;;;;;;;6.15;2.60;;;;;;;21.97;26.91;94146.47;5024618;28;20319;-78
2023/10/08 10:24:37;;;;;;;6.72;2.90;;;;;;;22.15;26.54;94150.06;5024342;28;20026;-78
2023/10/08 10:27:14;;;;;;;12.35;3.05;;;;;;;22.26;26.60;94149.38;5024248;28;20120;-79
2023/10/08 10:29:43;;;;;;;9.90;3.47;;;;;;;22.22;26.39;94144.66;5024598;28;20100;-77
2023/10/08 10:32:17;;;;;;;7.47;3.15;;;;;;;22.31;26.95;94132.69;5024322;28;20088;-78
2023/10/08 10:34:44;;;;;;;8.75;3.15;;;;;;;22.45;26.76;94132.78;5024372;28;20022;-77
2023/10/08 10:37:19;;;;;;;6.72;2.40;;;;;;;22.49;26.33;94130.88;5024269;28;20033;-77
2023/10/08 10:40:09;;;;;;;6.60;2.80;;;;;;;22.56;26.47;94109.16;5024247;28;20030;-79
2023/10/08 10:42:38;;;;;;;8.32;3.00;;;;;;;22.73;26.39;94107.63;5024280;28;20025;-79
2023/10/08 10:45:35;;;;;;;10.45;2.67;;;;;;;22.84;26.60;94137.56;5022787;28;20025;-79
2023/10/08 10:48:00;;;;;;;14.73;3.65;;;;;;;22.93;26.61;94116.22;5023604;28;20037;-78
2023/10/08 10:50:31;;;;;;;20.42;3.85;;;;;;;22.96;26.21;94112.75;5024593;28;20029;-79
2023/10/08 10:52:57;;;;;;;9.57;2.60;;;;;;;22.92;26.27;94117.41;5024844;28;20076;-79
2023/10/08 10:55:31;;;;;;;10.63;3.00;;;;;;;22.76;26.48;94112.31;5024106;28;20022;-79
2023/10/08 10:58:04;;;;;;;6.70;2.75;;;;;;;22.56;26.76;94128.16;5023817;28;20047;-78
2023/10/08 11:03:03;;;;;;;7.47;2.72;;;;;;;22.47;27.49;94097.88;5023898;28;20038;-78
2023/10/08 11:05:39;;;;;;;6.82;2.90;;;;;;;22.55;27.80;94091.31;5022477;28;20029;-78
2023/10/08 11:08:08;;;;;;;13.27;2.60;;;;;;;22.61;28.33;94097.13;5023762;28;20189;-78
2023/10/08 11:10:41;;;;;;;8.00;3.38;;;;;;;22.55;27.77;94095.94;5023798;28;20036;-78
2023/10/08 11:13:14;;;;;;;5.78;2.40;;;;;;;22.49;27.73;94087.41;5023991;28;20021;-78
2023/10/08 11:15:41;;;;;;;4.93;2.40;;;;;;;22.46;28.00;94096.31;5023839;28;20092;-78
2023/10/08 11:18:11;;;;;;;8.57;2.65;;;;;;;22.51;28.42;94095.16;5022364;28;20025;-78
2023/10/08 11:20:44;;;;;;;6.53;2.33;;;;;;;22.55;28.25;94094.03;5022255;28;20053;-78
2023/10/08 11:23:21;;;;;;;7.07;2.40;;;;;;;22.45;28.46;94086.63;5022250;28;20111;-78
2023/10/08 11:25:54;;;;;;;8.38;1.98;;;;;;;22.40;28.73;94081.56;5023534;28;20252;-79
2023/10/08 11:28:20;;;;;;;6.82;2.42;;;;;;;22.35;29.13;94071.06;5023314;28;20014;-79
2023/10/08 11:30:50;;;;;;;7.28;2.90;;;;;;;22.42;29.03;94081.94;5022880;28;20018;-79
2023/10/08 11:33:16;;;;;;;15.65;3.47;;;;;;;22.51;29.58;94070.72;5023272;28;20033;-78
2023/10/08 11:36:01;;;;;;;11.32;2.20;;;;;;;22.56;28.72;94065.69;5023219;28;20021;-78
2023/10/08 11:38:27;;;;;;;9.85;3.83;;;;;;;22.57;29.72;94064.53;5021865;28;20247;-78
2023/10/08 11:40:56;;;;;;;8.60;2.60;;;;;;;22.66;29.62;94071.53;5023101;28;20026;-78
2023/10/08 11:43:23;;;;;;;12.30;2.75;;;;;;;22.68;29.87;94066.50;5022178;28;20079;-79
2023/10/08 11:45:49;;;;;;;11.20;2.67;;;;;;;22.82;30.09;94070.03;5023180;28;20025;-78
2023/10/08 11:48:21;;;;;;;10.27;3.00;;;;;;;22.94;29.53;94066.16;5023148;28;20121;-79
2023/10/08 11:50:47;;;;;;;15.95;3.38;;;;;;;23.03;29.51;94055.69;5023003;28;20030;-79
2023/10/08 11:53:13;;;;;;;11.55;3.50;;;;;;;23.05;28.86;94059.97;5022651;28;20045;-79
2023/10/08 11:55:42;;;;;;;5.55;2.65;;;;;;;23.06;29.27;94069.69;5021716;28;20065;-78
2023/10/08 11:58:11;;;;;;;13.25;3.20;;;;;;;22.93;28.90;94072.75;5021835;28;20025;-78
2023/10/08 12:00:43;;;;;;;13.55;3.10;;;;;;;22.82;29.08;94086.31;5021375;28;20045;-80
2023/10/08 12:03:12;;;;;;;22.65;3.83;;;;;;;22.64;29.73;94071.94;5022767;28;20064;-80
2023/10/08 12:05:47;;;;;;;8.82;3.10;;;;;;;22.47;29.88;94068.00;5023220;28;20048;-79
2023/10/08 12:08:17;;;;;;;15.05;3.42;;;;;;;22.39;29.92;94064.50;5022001;28;20316;-79
2023/10/08 12:10:46;;;;;;;17.55;3.20;;;;;;;22.36;30.26;94051.66;5021874;28;20056;-79
2023/10/08 12:13:12;;;;;;;12.50;2.88;;;;;;;22.28;29.74;94058.22;5022988;28;20342;-78
2023/10/08 12:15:38;;;;;;;9.20;2.85;;;;;;;22.24;30.20;94058.22;5023193;28;20026;-79
2023/10/08 12:20:48;;;;;;;12.23;3.53;;;;;;;22.11;30.16;94075.97;5023126;28;20032;-79
2023/10/08 12:23:25;;;;;;;14.02;2.60;;;;;;;22.15;30.48;94062.44;5023059;28;20052;-79
2023/10/08 12:25:52;;;;;;;11.25;3.25;;;;;;;22.18;30.21;94059.72;5023128;28;20231;-79
2023/10/08 12:28:21;;;;;;;8.13;2.67;;;;;;;22.17;30.06;94071.75;5023301;28;20038;-79
2023/10/08 12:30:49;;;;;;;12.93;2.85;;;;;;;22.26;30.29;94073.34;5023167;28;20025;-79
2023/10/08 12:33:15;;;;;;;10.10;2.67;;;;;;;22.29;29.68;94083.44;5022654;28;20065;-79
2023/10/08 12:35:43;;;;;;;17.02;3.10;;;;;;;22.35;29.95;94060.22;5021616;28;20033;-78